Time;durP1;ratioP1;P1;durP2;ratioP2;P2;SDS_P1;SDS_P2;PMS_P1;PMS_P2;Temp;Humidity;BMP_temperature;BMP_pressure;BME280_temperature;BME280_humidity;BME280_pressure;Samples;Min_cycle;Max_cycle;Signal;HPM_P1;HPM_P2
2020/12/16 00:01:41;;;;;;;24.60;20.98;;;7.80;1.00;;;;;;4957151;28;20234;-76
2020/12/16 00:04:07;;;;;;;24.73;19.65;;;7.90;1.00;;;;;;4979759;28;20247;-75
2020/12/16 00:06:33;;;;;;;26.27;21.77;;;7.90;1.00;;;;;;4964887;28;20271;-75
2020/12/16 00:09:00;;;;;;;21.83;19.40;;;7.90;1.00;;;;;;4972846;28;20235;-76
2020/12/16 00:11:27;;;;;;;23.45;19.52;;;7.90;1.00;;;;;;4961663;28;20223;-76
2020/12/16 00:13:53;;;;;;;25.55;19.67;;;8.00;1.00;;;;;;4984927;28;20458;-76
2020/12/16 00:16:19;;;;;;;23.90;19.40;;;8.00;1.00;;;;;;4957207;28;20225;-76
2020/12/16 00:18:45;;;;;;;24.65;19.17;;;8.00;1.00;;;;;;4974633;28;20335;-74
2020/12/16 00:21:11;;;;;;;24.52;20.55;;;7.90;1.00;;;;;;4974736;28;20302;-76
2020/12/16 00:23:38;;;;;;;26.25;20.35;;;7.90;1.00;;;;;;4959898;28;20698;-76
2020/12/16 00:26:04;;;;;;;24.40;18.70;;;7.90;1.00;;;;;;4978584;28;20223;-76
2020/12/16 00:28:31;;;;;;;22.83;19.70;;;8.00;1.00;;;;;;4961947;28;20239;-75
2020/12/16 00:30:59;;;;;;;23.05;20.00;;;7.90;1.00;;;;;;4976631;28;20315;-75
2020/12/16 00:33:25;;;;;;;28.20;20.52;;;7.90;1.00;;;;;;4964491;28;20686;-75
2020/12/16 00:35:51;;;;;;;27.30;21.30;;;7.90;1.00;;;;;;4976089;28;20228;-74
2020/12/16 00:38:17;;;;;;;26.63;20.75;;;7.90;1.00;;;;;;4964473;28;20347;-75
2020/12/16 00:40:43;;;;;;;24.30;20.05;;;7.90;1.00;;;;;;4978123;28;20702;-76
2020/12/16 00:43:10;;;;;;;27.05;20.95;;;7.90;1.00;;;;;;4955198;28;20231;-77
2020/12/16 00:45:37;;;;;;;24.67;20.17;;;7.90;1.00;;;;;;4984810;28;20252;-78
2020/12/16 00:48:03;;;;;;;24.52;19.90;;;7.90;1.00;;;;;;4962051;28;20688;-75
2020/12/16 00:50:29;;;;;;;25.35;20.65;;;7.90;1.00;;;;;;4980964;28;20470;-74
2020/12/16 00:52:55;;;;;;;22.45;19.48;;;7.90;1.00;;;;;;4961300;28;20227;-74
2020/12/16 00:55:21;;;;;;;25.60;20.52;;;8.00;1.00;;;;;;4982042;28;20226;-75
2020/12/16 00:57:48;;;;;;;23.67;19.42;;;8.00;1.00;;;;;;4963103;28;20279;-78
2020/12/16 01:00:16;;;;;;;23.35;20.83;;;8.00;1.00;;;;;;4979635;28;20248;-75
2020/12/16 01:02:44;;;;;;;23.65;19.15;;;8.00;1.00;;;;;;4978116;28;21039;-73
2020/12/16 01:05:10;;;;;;;26.57;22.70;;;8.10;1.00;;;;;;4955649;28;20417;-75
2020/12/16 01:07:38;;;;;;;23.15;20.38;;;8.10;1.00;;;;;;4981377;28;20452;-74
2020/12/16 01:10:05;;;;;;;28.50;21.52;;;8.20;1.00;;;;;;4959177;28;20738;-75
2020/12/16 01:12:31;;;;;;;24.35;20.88;;;8.20;1.00;;;;;;4981035;28;20682;-75
2020/12/16 01:14:57;;;;;;;23.30;20.38;;;8.20;1.00;;;;;;4955226;28;20234;-75
2020/12/16 01:17:23;;;;;;;26.52;21.05;;;8.20;1.00;;;;;;4979742;28;20289;-75
2020/12/16 01:19:50;;;;;;;25.30;21.77;;;8.20;1.00;;;;;;4960788;28;20244;-75
2020/12/16 01:22:17;;;;;;;21.70;19.38;;;8.30;1.00;;;;;;4984681;28;20218;-74
2020/12/16 01:24:43;;;;;;;26.42;19.85;;;8.20;1.00;;;;;;4959573;28;21299;-75
2020/12/16 01:27:09;;;;;;;25.63;21.75;;;8.30;1.00;;;;;;4981878;28;20794;-76
2020/12/16 01:29:35;;;;;;;25.45;20.35;;;8.20;1.00;;;;;;4961873;28;20246;-77
2020/12/16 01:32:01;;;;;;;24.40;19.80;;;8.20;1.00;;;;;;4980937;28;20310;-76
2020/12/16 01:34:28;;;;;;;23.73;20.27;;;8.30;1.00;;;;;;4958429;28;20274;-75
2020/12/16 01:36:55;;;;;;;25.25;19.67;;;8.30;1.00;;;;;;4982462;28;20223;-75
2020/12/16 01:39:21;;;;;;;24.27;19.58;;;8.30;1.00;;;;;;4964096;28;20301;-75
2020/12/16 01:41:49;;;;;;;25.65;21.35;;;8.40;1.00;;;;;;4978487;28;20278;-79
2020/12/16 01:44:17;;;;;;;22.98;19.65;;;8.40;1.00;;;;;;4980627;28;20223;-75
2020/12/16 01:46:49;;;;;;;24.75;20.73;;;8.40;1.00;;;;;;4961463;28;20251;-75
2020/12/16 01:49:15;;;;;;;24.95;19.00;;;8.40;1.00;;;;;;4981815;28;20362;-75
2020/12/16 01:51:43;;;;;;;24.42;20.60;;;8.50;1.00;;;;;;4962898;28;20265;-75
2020/12/16 01:54:11;;;;;;;24.17;19.30;;;8.50;1.00;;;;;;4983079;28;20271;-74
2020/12/16 01:56:41;;;;;;;23.40;18.85;;;8.50;1.00;;;;;;4961861;28;21267;-74
2020/12/16 01:59:13;;;;;;;24.17;18.73;;;8.50;1.00;;;;;;4973318;28;20232;-75
2020/12/16 02:01:42;;;;;;;23.20;18.77;;;8.50;1.00;;;;;;4963203;28;20231;-74
2020/12/16 02:04:11;;;;;;;25.92;20.33;;;8.60;1.00;;;;;;4976665;28;21185;-75
2020/12/16 02:06:39;;;;;;;25.60;21.08;;;8.60;1.00;;;;;;4956833;28;20390;-76
2020/12/16 02:09:08;;;;;;;24.38;20.23;;;8.60;1.00;;;;;;4977856;28;20662;-75
2020/12/16 02:11:36;;;;;;;24.83;20.25;;;8.50;1.00;;;;;;4961344;28;20219;-76
2020/12/16 02:14:03;;;;;;;26.67;20.50;;;8.60;1.00;;;;;;4987925;28;20273;-76
2020/12/16 02:16:30;;;;;;;26.13;20.40;;;8.60;1.00;;;;;;4950329;28;20261;-75
2020/12/16 02:18:56;;;;;;;25.25;20.27;;;8.60;1.00;;;;;;4977374;28;20343;-75
2020/12/16 02:21:23;;;;;;;24.13;19.35;;;8.60;1.00;;;;;;4960190;28;20319;-73
2020/12/16 02:23:50;;;;;;;23.02;18.98;;;8.60;1.00;;;;;;4979601;28;20212;-74
2020/12/16 02:26:18;;;;;;;28.25;20.45;;;8.60;1.00;;;;;;4956390;28;20220;-74
2020/12/16 02:28:44;;;;;;;23.58;19.17;;;8.60;1.00;;;;;;4978529;28;20242;-75
2020/12/16 02:31:11;;;;;;;25.35;19.65;;;8.70;1.00;;;;;;4983515;28;20230;-75
2020/12/16 02:33:37;;;;;;;26.55;21.00;;;8.70;1.00;;;;;;4962625;28;20245;-76
2020/12/16 02:36:04;;;;;;;23.33;19.70;;;8.70;1.00;;;;;;4978658;28;20259;-75
2020/12/16 02:38:31;;;;;;;28.30;21.65;;;8.70;1.00;;;;;;4955877;28;20315;-75
2020/12/16 02:40:57;;;;;;;24.55;20.33;;;8.80;1.00;;;;;;4978684;28;20950;-75
2020/12/16 02:43:24;;;;;;;29.10;21.10;;;8.80;1.00;;;;;;4949705;28;20231;-75
2020/12/16 02:45:51;;;;;;;24.90;20.80;;;8.80;1.00;;;;;;4982667;28;20335;-75
2020/12/16 02:48:17;;;;;;;24.20;20.17;;;8.80;1.00;;;;;;4961807;28;20331;-74
2020/12/16 02:50:43;;;;;;;25.63;19.95;;;8.80;1.00;;;;;;4986185;28;20318;-76
2020/12/16 02:53:09;;;;;;;22.80;18.55;;;8.90;1.00;;;;;;4959313;28;20270;-74
2020/12/16 02:55:35;;;;;;;29.77;21.15;;;8.90;1.00;;;;;;4987616;28;20258;-75
2020/12/16 02:58:01;;;;;;;25.70;21.60;;;8.80;1.00;;;;;;4956224;28;20227;-75
2020/12/16 03:00:28;;;;;;;24.23;19.63;;;8.80;1.00;;;;;;4975012;28;20295;-74
2020/12/16 03:02:55;;;;;;;24.98;19.77;;;8.80;1.00;;;;;;4965784;28;20219;-75
2020/12/16 03:05:21;;;;;;;25.45;18.73;;;8.80;1.00;;;;;;4983605;28;20262;-76
2020/12/16 03:07:47;;;;;;;25.88;20.10;;;8.80;1.00;;;;;;4950862;28;20231;-76
2020/12/16 03:10:13;;;;;;;26.13;20.17;;;8.90;1.00;;;;;;4979657;28;20228;-74
2020/12/16 03:12:39;;;;;;;25.92;20.35;;;8.80;1.00;;;;;;4980914;28;21392;-75
2020/12/16 03:15:05;;;;;;;28.88;21.80;;;8.90;1.00;;;;;;4953624;28;20216;-75
2020/12/16 03:17:33;;;;;;;30.83;23.33;;;8.80;1.00;;;;;;4976938;28;21347;-74
2020/12/16 03:20:00;;;;;;;31.45;21.85;;;8.80;1.00;;;;;;4953540;28;20705;-74
2020/12/16 03:22:28;;;;;;;30.10;22.80;;;8.90;1.00;;;;;;4984264;28;20216;-74
2020/12/16 03:24:54;;;;;;;30.25;23.25;;;8.80;1.00;;;;;;4953677;28;20354;-74
2020/12/16 03:27:20;;;;;;;29.77;21.65;;;8.80;1.00;;;;;;4979416;28;22278;-76
2020/12/16 03:29:47;;;;;;;29.23;21.63;;;8.90;1.00;;;;;;4955276;28;20234;-75
2020/12/16 03:32:13;;;;;;;26.25;21.50;;;8.90;1.00;;;;;;4975224;28;20310;-75
2020/12/16 03:34:40;;;;;;;29.55;22.23;;;8.90;1.00;;;;;;4961446;28;20228;-76
2020/12/16 03:37:06;;;;;;;29.30;21.50;;;8.90;1.00;;;;;;4975247;28;20230;-75
2020/12/16 03:39:32;;;;;;;28.50;22.60;;;8.80;1.00;;;;;;4959900;28;20962;-74
2020/12/16 03:41:58;;;;;;;30.23;22.15;;;8.80;1.00;;;;;;4973072;28;20227;-73
2020/12/16 03:44:25;;;;;;;28.55;22.25;;;8.80;1.00;;;;;;4956278;28;20229;-74
2020/12/16 03:46:51;;;;;;;30.60;21.77;;;8.90;1.00;;;;;;4976217;28;20266;-75
2020/12/16 03:49:18;;;;;;;31.25;23.50;;;8.90;1.00;;;;;;4965412;28;20235;-77
2020/12/16 03:51:46;;;;;;;30.98;23.52;;;8.90;1.00;;;;;;4972014;28;20228;-76
2020/12/16 03:54:12;;;;;;;29.88;22.90;;;8.90;1.00;;;;;;4982003;28;20692;-75
2020/12/16 03:56:38;;;;;;;29.98;22.13;;;8.90;1.00;;;;;;4960710;28;20275;-75
2020/12/16 03:59:04;;;;;;;31.63;24.02;;;8.90;1.00;;;;;;4979098;28;20310;-75
2020/12/16 04:01:31;;;;;;;33.28;23.98;;;8.90;1.00;;;;;;4964319;28;20258;-75
2020/12/16 04:03:58;;;;;;;34.53;22.73;;;8.90;1.00;;;;;;4975746;28;20220;-75
2020/12/16 04:06:24;;;;;;;32.47;22.20;;;8.90;1.00;;;;;;4961691;28;20233;-75
2020/12/16 04:08:51;;;;;;;29.60;22.88;;;8.90;1.00;;;;;;4983403;28;20284;-74
2020/12/16 04:11:18;;;;;;;29.83;23.20;;;8.90;1.00;;;;;;4968526;28;20271;-76
2020/12/16 04:13:45;;;;;;;31.33;23.75;;;9.00;1.00;;;;;;4985644;28;20219;-75
2020/12/16 04:16:13;;;;;;;31.88;23.23;;;9.00;1.00;;;;;;4965972;28;21054;-75
2020/12/16 04:18:40;;;;;;;32.38;22.60;;;9.00;1.00;;;;;;4985480;28;20310;-76
2020/12/16 04:21:06;;;;;;;34.33;25.45;;;8.90;1.00;;;;;;4962601;28;20235;-76
2020/12/16 04:23:32;;;;;;;33.92;23.85;;;8.90;1.00;;;;;;4983464;28;20221;-77
2020/12/16 04:25:59;;;;;;;39.35;25.25;;;8.90;1.00;;;;;;4960742;28;20238;-76
2020/12/16 04:28:26;;;;;;;37.60;24.98;;;8.90;1.00;;;;;;4983013;28;20254;-75
2020/12/16 04:31:07;;;;;;;35.50;24.10;;;8.90;1.00;;;;;;4981502;28;20235;-79
2020/12/16 04:33:34;;;;;;;35.92;24.75;;;8.90;1.00;;;;;;4982266;28;20710;-73
2020/12/16 04:36:00;;;;;;;38.15;25.00;;;9.00;1.00;;;;;;4983532;28;20310;-74
2020/12/16 04:38:26;;;;;;;36.03;26.65;;;9.00;1.00;;;;;;4962199;28;20715;-75
2020/12/16 04:40:54;;;;;;;36.75;25.15;;;8.90;1.00;;;;;;4986274;28;20232;-75
2020/12/16 04:43:23;;;;;;;37.08;26.70;;;9.00;1.00;;;;;;4959580;28;20256;-75
2020/12/16 04:45:50;;;;;;;36.67;25.17;;;8.90;1.00;;;;;;4982331;28;20955;-76
2020/12/16 04:48:17;;;;;;;38.33;26.27;;;9.00;1.00;;;;;;4964421;28;20233;-75
2020/12/16 04:50:45;;;;;;;39.10;24.60;;;9.00;1.00;;;;;;4983910;28;20235;-76
2020/12/16 04:53:13;;;;;;;37.05;24.83;;;9.00;1.00;;;;;;4962520;28;20981;-74
2020/12/16 04:55:40;;;;;;;37.90;25.58;;;9.00;1.00;;;;;;4983968;28;20346;-74
2020/12/16 04:58:07;;;;;;;45.95;29.73;;;9.00;1.00;;;;;;4966561;28;20228;-76
2020/12/16 05:00:35;;;;;;;43.75;24.83;;;9.00;1.00;;;;;;4980315;28;20243;-75
2020/12/16 05:03:03;;;;;;;37.33;25.65;;;8.90;1.00;;;;;;4964235;28;20224;-75
2020/12/16 05:05:30;;;;;;;41.80;26.30;;;8.90;1.00;;;;;;4977889;28;20671;-75
2020/12/16 05:07:56;;;;;;;40.47;27.02;;;8.90;1.00;;;;;;4965253;28;20249;-75
2020/12/16 05:10:34;;;;;;;44.63;27.13;;;8.90;1.00;;;;;;4980328;28;20355;-75
2020/12/16 05:13:04;;;;;;;38.92;27.52;;;8.90;1.00;;;;;;4963697;28;20749;-74
2020/12/16 05:15:31;;;;;;;39.75;26.15;;;9.00;1.00;;;;;;4981214;28;20298;-75
2020/12/16 05:18:06;;;;;;;34.83;25.15;;;9.00;1.00;;;;;;4961712;28;20236;-74
2020/12/16 05:20:32;;;;;;;41.53;26.58;;;9.00;1.00;;;;;;4983311;28;20266;-74
2020/12/16 05:23:00;;;;;;;41.58;27.70;;;9.00;1.00;;;;;;4967014;28;20219;-77
2020/12/16 05:25:26;;;;;;;37.20;27.50;;;9.00;1.00;;;;;;4983920;28;20223;-77
2020/12/16 05:27:52;;;;;;;36.67;25.92;;;9.00;1.00;;;;;;4979150;28;20235;-74
2020/12/16 05:30:19;;;;;;;38.25;26.95;;;9.00;1.00;;;;;;4963939;28;20220;-74
2020/12/16 05:32:45;;;;;;;39.92;27.20;;;9.10;1.00;;;;;;4975236;28;20229;-76
2020/12/16 05:35:27;;;;;;;42.53;29.40;;;9.10;1.00;;;;;;4960552;28;20224;-75
2020/12/16 05:38:04;;;;;;;42.53;29.60;;;9.10;1.00;;;;;;4979401;28;20290;-74
2020/12/16 05:40:31;;;;;;;36.20;25.95;;;9.10;1.00;;;;;;4958133;28;20302;-76
2020/12/16 05:42:58;;;;;;;38.13;26.65;;;9.20;1.00;;;;;;4979563;28;20237;-74
2020/12/16 05:45:26;;;;;;;41.50;29.17;;;9.20;1.00;;;;;;4963387;28;20231;-75
2020/12/16 05:48:01;;;;;;;39.20;28.83;;;9.20;1.00;;;;;;4985081;28;20223;-75
2020/12/16 05:50:37;;;;;;;41.55;27.23;;;9.20;1.00;;;;;;4961726;28;20655;-76
2020/12/16 05:53:22;;;;;;;40.17;29.00;;;9.20;1.00;;;;;;4978828;28;20227;-75
2020/12/16 05:55:50;;;;;;;51.00;31.30;;;9.20;1.00;;;;;;4958068;28;20228;-75
2020/12/16 05:58:18;;;;;;;53.17;37.50;;;9.20;1.00;;;;;;4984855;28;20286;-76
2020/12/16 06:00:50;;;;;;;40.88;28.52;;;9.20;1.00;;;;;;4963141;28;20263;-76
2020/12/16 06:03:18;;;;;;;35.78;24.95;;;9.30;1.00;;;;;;4979930;28;20227;-76
2020/12/16 06:05:49;;;;;;;42.33;28.38;;;9.30;1.00;;;;;;4958987;28;20391;-75
2020/12/16 06:08:16;;;;;;;38.17;26.70;;;9.30;1.00;;;;;;4979679;28;20384;-76
2020/12/16 06:10:45;;;;;;;38.38;27.33;;;9.20;1.00;;;;;;4958185;28;20317;-75
2020/12/16 06:13:13;;;;;;;37.90;26.30;;;9.20;1.00;;;;;;4984436;28;20306;-74
2020/12/16 06:15:54;;;;;;;38.33;29.08;;;9.20;1.00;;;;;;4957748;28;20239;-76
2020/12/16 06:18:22;;;;;;;40.03;28.30;;;9.20;1.00;;;;;;4978762;28;20227;-77
2020/12/16 06:20:49;;;;;;;76.93;53.65;;;9.20;1.00;;;;;;4962167;28;20227;-76
2020/12/16 06:23:23;;;;;;;46.92;29.48;;;9.30;1.00;;;;;;4983262;28;20250;-75
2020/12/16 06:25:52;;;;;;;36.58;25.83;;;9.30;1.00;;;;;;4959799;28;20255;-75
2020/12/16 06:28:19;;;;;;;38.55;27.73;;;9.30;1.00;;;;;;4982779;28;20234;-76
2020/12/16 06:30:55;;;;;;;41.05;28.40;;;9.30;1.00;;;;;;4956581;28;20616;-74
2020/12/16 06:33:34;;;;;;;35.30;28.67;;;9.30;1.00;;;;;;4987781;28;20224;-75
2020/12/16 06:36:04;;;;;;;41.05;28.75;;;9.30;1.00;;;;;;4976764;28;21569;-76
2020/12/16 06:38:38;;;;;;;38.85;28.05;;;9.40;1.00;;;;;;4996229;28;20266;-75
2020/12/16 06:41:09;;;;;;;39.70;28.15;;;9.40;1.00;;;;;;4970579;28;20228;-73
2020/12/16 06:43:44;;;;;;;42.80;29.30;;;9.40;1.00;;;;;;4983139;28;20224;-75
2020/12/16 06:46:43;;;;;;;39.92;27.92;;;9.40;1.00;;;;;;4981967;28;20700;-74
2020/12/16 06:49:27;;;;;;;41.95;27.80;;;9.30;1.00;;;;;;4973827;28;20311;-76
2020/12/16 06:51:56;;;;;;;34.80;25.27;;;9.30;1.00;;;;;;4969775;28;20221;-76
2020/12/16 06:54:24;;;;;;;37.33;27.98;;;9.30;1.00;;;;;;4987484;28;20230;-77
2020/12/16 06:57:09;;;;;;;41.90;28.95;;;9.20;1.00;;;;;;4971483;28;20445;-76
2020/12/16 06:59:53;;;;;;;40.85;25.95;;;9.30;1.00;;;;;;4999747;28;20437;-75
2020/12/16 07:02:26;;;;;;;40.60;26.98;;;9.30;1.00;;;;;;4969597;28;21755;-76
2020/12/16 07:04:52;;;;;;;34.05;27.38;;;9.30;1.00;;;;;;4983869;28;20244;-74
2020/12/16 07:07:48;;;;;;;41.67;26.80;;;9.30;1.00;;;;;;4973255;28;20324;-76
2020/12/16 07:10:47;;;;;;;37.05;27.20;;;9.20;1.00;;;;;;4980117;28;20227;-77
2020/12/16 07:13:28;;;;;;;40.08;25.55;;;9.20;1.00;;;;;;4968196;28;20359;-77
2020/12/16 07:16:00;;;;;;;38.78;26.20;;;9.20;1.00;;;;;;4986215;28;20239;-77
2020/12/16 07:18:44;;;;;;;36.78;25.70;;;9.20;1.00;;;;;;4974976;28;20241;-75
2020/12/16 07:21:25;;;;;;;39.78;26.23;;;9.20;1.00;;;;;;4975998;28;20232;-74
2020/12/16 07:24:01;;;;;;;39.65;28.30;;;9.20;1.00;;;;;;4976368;28;20243;-75
2020/12/16 07:26:29;;;;;;;36.92;26.75;;;9.20;1.00;;;;;;4986114;28;20226;-73
2020/12/16 07:28:57;;;;;;;41.90;27.65;;;9.10;1.00;;;;;;4967511;28;20232;-77
2020/12/16 07:31:24;;;;;;;44.72;29.42;;;9.20;1.00;;;;;;4989668;28;20223;-75
2020/12/16 07:33:50;;;;;;;40.47;26.85;;;9.20;1.00;;;;;;4953398;28;20322;-76
2020/12/16 07:36:18;;;;;;;37.05;27.00;;;9.20;1.00;;;;;;4979666;28;20216;-76
2020/12/16 07:38:53;;;;;;;43.15;28.45;;;9.20;1.00;;;;;;4949325;28;20334;-76
2020/12/16 07:41:28;;;;;;;42.83;33.40;;;9.20;1.00;;;;;;4983629;28;20238;-76
2020/12/16 07:43:56;;;;;;;43.05;29.88;;;9.20;1.00;;;;;;4949913;28;20294;-77
2020/12/16 07:46:22;;;;;;;40.42;28.00;;;9.20;1.00;;;;;;4976040;28;20220;-77
2020/12/16 07:48:49;;;;;;;42.03;29.13;;;9.20;1.00;;;;;;4958950;28;20232;-77
2020/12/16 07:51:18;;;;;;;44.10;29.55;;;9.20;1.00;;;;;;4974840;28;20232;-77
2020/12/16 07:53:46;;;;;;;41.22;28.30;;;9.30;1.00;;;;;;4981802;28;20947;-77
2020/12/16 07:56:15;;;;;;;44.58;27.83;;;9.30;1.00;;;;;;4977277;28;20220;-75
2020/12/16 07:58:42;;;;;;;39.65;27.67;;;9.30;1.00;;;;;;4981861;28;20232;-75
2020/12/16 08:01:09;;;;;;;40.33;27.80;;;9.30;1.00;;;;;;4971153;28;20363;-75
2020/12/16 08:03:37;;;;;;;34.15;26.48;;;9.30;1.00;;;;;;4980712;28;20243;-75
2020/12/16 08:06:04;;;;;;;41.92;27.23;;;9.40;1.00;;;;;;4966414;28;20251;-75
2020/12/16 08:08:30;;;;;;;38.28;27.73;;;9.40;1.00;;;;;;4983606;28;20365;-75
2020/12/16 08:10:57;;;;;;;43.45;34.22;;;9.40;1.00;;;;;;4970092;28;20295;-74
2020/12/16 08:13:26;;;;;;;40.17;27.10;;;9.40;1.00;;;;;;4982887;28;20220;-75
2020/12/16 08:16:03;;;;;;;43.85;30.05;;;9.50;1.00;;;;;;4964574;28;20247;-74
2020/12/16 08:18:30;;;;;;;37.83;26.50;;;9.60;1.00;;;;;;4978355;28;20239;-78
2020/12/16 08:20:56;;;;;;;38.75;27.67;;;9.60;1.00;;;;;;4966038;28;20366;-75
2020/12/16 08:23:22;;;;;;;42.33;27.75;;;9.60;1.00;;;;;;4972931;28;20326;-76
2020/12/16 08:25:49;;;;;;;44.13;27.92;;;9.70;1.00;;;;;;4961752;28;20263;-76
2020/12/16 08:28:26;;;;;;;44.20;28.08;;;9.70;1.00;;;;;;4987083;28;20227;-76
2020/12/16 08:30:53;;;;;;;36.65;27.30;;;9.70;1.00;;;;;;4965281;28;20269;-76
2020/12/16 08:33:20;;;;;;;37.75;27.25;;;9.60;1.00;;;;;;4982365;28;20235;-74
2020/12/16 08:35:52;;;;;;;36.83;26.23;;;9.60;1.00;;;;;;4964936;28;20323;-75
2020/12/16 08:38:24;;;;;;;42.53;29.42;;;9.60;1.00;;;;;;4983417;28;20425;-75
2020/12/16 08:40:52;;;;;;;37.33;26.98;;;9.70;1.00;;;;;;4977810;28;20232;-77
2020/12/16 08:43:21;;;;;;;36.38;26.42;;;9.80;1.00;;;;;;4987467;28;20228;-77
2020/12/16 08:45:58;;;;;;;42.90;26.33;;;9.80;1.00;;;;;;4976958;28;20228;-76
2020/12/16 08:48:25;;;;;;;37.20;26.67;;;9.90;1.00;;;;;;4984914;28;20232;-75
2020/12/16 08:54:05;;;;;;;39.40;27.17;;;9.90;1.00;;;;;;4977787;28;20240;-75
2020/12/16 08:56:36;;;;;;;47.42;30.80;;;9.90;1.00;;;;;;4966155;28;20223;-76
2020/12/16 08:59:11;;;;;;;40.63;28.13;;;10.00;1.00;;;;;;4985316;28;20231;-76
2020/12/16 09:01:40;;;;;;;40.03;28.85;;;10.00;1.00;;;;;;4965425;28;20322;-75
2020/12/16 09:04:07;;;;;;;35.65;27.27;;;10.10;1.00;;;;;;4982817;28;21438;-76
2020/12/16 09:06:34;;;;;;;33.42;27.40;;;10.10;1.00;;;;;;4986078;28;20228;-78
2020/12/16 09:09:00;;;;;;;37.30;28.42;;;10.20;1.00;;;;;;4973439;28;20228;-75
2020/12/16 09:11:27;;;;;;;38.13;28.85;;;10.20;1.00;;;;;;4983646;28;20249;-76
2020/12/16 09:13:58;;;;;;;38.70;28.67;;;10.30;1.00;;;;;;4964734;28;20229;-76
2020/12/16 09:16:27;;;;;;;38.05;27.67;;;10.30;1.00;;;;;;4984085;28;20232;-76
2020/12/16 09:18:54;;;;;;;41.00;29.00;;;10.30;1.00;;;;;;4972158;28;20287;-75
2020/12/16 09:21:32;;;;;;;38.45;27.77;;;10.30;1.00;;;;;;4986359;28;20266;-75
2020/12/16 09:24:00;;;;;;;36.80;27.25;;;10.30;1.00;;;;;;4962980;28;20227;-75
2020/12/16 09:26:38;;;;;;;36.10;29.15;;;10.40;1.00;;;;;;4982354;28;21151;-75
2020/12/16 09:29:15;;;;;;;40.28;27.02;;;10.40;1.00;;;;;;4964780;28;20234;-75
2020/12/16 09:31:41;;;;;;;35.35;27.40;;;10.40;1.00;;;;;;4982323;28;20258;-75
2020/12/16 09:34:09;;;;;;;38.88;29.38;;;10.50;1.00;;;;;;4960580;28;20217;-74
2020/12/16 09:36:36;;;;;;;38.50;28.17;;;10.60;1.00;;;;;;4987068;28;20227;-75
2020/12/16 09:39:05;;;;;;;36.47;28.02;;;10.60;1.00;;;;;;4969890;28;20579;-75
2020/12/16 09:41:43;;;;;;;42.63;28.30;;;10.70;1.00;;;;;;4982082;28;20239;-76
2020/12/16 09:44:25;;;;;;;33.03;25.00;;;10.80;1.00;;;;;;4970940;28;20315;-78
2020/12/16 09:46:52;;;;;;;40.80;29.93;;;10.80;1.00;;;;;;4982671;28;21051;-76
2020/12/16 09:49:20;;;;;;;36.15;26.45;;;10.80;1.00;;;;;;4970542;28;20552;-76
2020/12/16 09:51:47;;;;;;;34.88;24.60;;;10.80;1.00;;;;;;4985122;28;20303;-77
2020/12/16 09:54:28;;;;;;;35.70;27.08;;;10.80;1.00;;;;;;4972046;28;20324;-77
2020/12/16 09:56:54;;;;;;;30.47;24.00;;;10.90;1.00;;;;;;4990266;28;20274;-77
2020/12/16 09:59:20;;;;;;;35.43;25.93;;;10.80;1.00;;;;;;4963627;28;20463;-77
2020/12/16 10:01:49;;;;;;;31.38;24.65;;;10.90;1.00;;;;;;4989959;28;20464;-78
2020/12/16 10:04:16;;;;;;;38.60;27.73;;;10.90;1.00;;;;;;4968542;28;20223;-76
2020/12/16 10:06:43;;;;;;;33.05;25.48;;;10.90;1.00;;;;;;4987197;28;20311;-78
2020/12/16 10:09:09;;;;;;;33.10;24.13;;;10.90;1.00;;;;;;4958008;28;20311;-76
2020/12/16 10:11:37;;;;;;;29.75;24.40;;;10.90;1.00;;;;;;4982467;28;20460;-76
2020/12/16 10:14:03;;;;;;;35.50;27.17;;;10.90;1.00;;;;;;4983029;28;20295;-76
2020/12/16 10:16:32;;;;;;;29.17;22.98;;;10.80;1.00;;;;;;4967019;28;20228;-76
2020/12/16 10:18:58;;;;;;;32.45;24.00;;;10.80;1.00;;;;;;4984806;28;20265;-76
2020/12/16 10:21:24;;;;;;;36.63;26.07;;;10.80;1.00;;;;;;4971860;28;20284;-76
2020/12/16 10:23:51;;;;;;;31.95;24.25;;;10.80;1.00;;;;;;4978400;28;20647;-75
2020/12/16 10:26:17;;;;;;;29.90;23.77;;;10.80;1.00;;;;;;4970245;28;20824;-76
2020/12/16 10:28:44;;;;;;;32.10;25.05;;;10.80;1.00;;;;;;4978898;28;21225;-77
2020/12/16 10:31:10;;;;;;;33.53;26.30;;;10.80;1.00;;;;;;4973860;28;20319;-76
2020/12/16 10:33:36;;;;;;;34.30;25.92;;;10.90;1.00;;;;;;4985789;28;20254;-78
2020/12/16 10:36:02;;;;;;;31.23;24.63;;;11.10;1.00;;;;;;4964542;28;20233;-75
2020/12/16 10:38:29;;;;;;;28.67;23.87;;;11.10;1.00;;;;;;4983110;28;20814;-76
2020/12/16 10:40:56;;;;;;;32.15;25.08;;;11.20;1.00;;;;;;4955843;28;20554;-75
2020/12/16 10:43:22;;;;;;;30.43;25.67;;;11.10;1.00;;;;;;4987823;28;20565;-76
2020/12/16 10:45:48;;;;;;;32.43;24.90;;;11.10;1.00;;;;;;4969272;28;20503;-76
2020/12/16 10:48:14;;;;;;;33.05;24.67;;;11.30;1.00;;;;;;4982592;28;20539;-77
2020/12/16 10:50:43;;;;;;;29.70;22.05;;;11.20;1.00;;;;;;4968162;28;21077;-77
2020/12/16 10:53:10;;;;;;;26.25;22.08;;;11.30;1.00;;;;;;4977169;28;20224;-76
2020/12/16 10:55:36;;;;;;;30.20;23.17;;;11.30;1.00;;;;;;4982641;28;20225;-77
2020/12/16 10:58:03;;;;;;;30.50;21.90;;;11.30;1.00;;;;;;4960474;28;20249;-76
2020/12/16 11:00:29;;;;;;;29.47;24.00;;;11.20;1.00;;;;;;4988312;28;20245;-76
2020/12/16 11:02:55;;;;;;;33.17;23.67;;;11.10;1.00;;;;;;4968896;28;20483;-76
2020/12/16 11:05:22;;;;;;;33.20;22.70;;;10.90;1.00;;;;;;4983665;28;20267;-79
2020/12/16 11:07:48;;;;;;;32.92;25.00;;;10.90;1.00;;;;;;4967675;28;20478;-78
2020/12/16 11:10:14;;;;;;;33.47;24.48;;;10.80;1.00;;;;;;4992238;28;20232;-78
2020/12/16 11:12:40;;;;;;;31.38;23.50;;;10.80;1.00;;;;;;4984768;28;20246;-77
2020/12/16 11:15:07;;;;;;;30.92;23.35;;;10.90;1.00;;;;;;4995167;28;20265;-76
2020/12/16 11:17:33;;;;;;;29.48;22.98;;;11.00;1.00;;;;;;4976324;28;20222;-77
2020/12/16 11:20:00;;;;;;;27.88;23.10;;;11.10;1.00;;;;;;4994432;28;21132;-78
2020/12/16 11:22:26;;;;;;;31.02;23.17;;;11.10;1.00;;;;;;4977776;28;20227;-76
2020/12/16 11:24:53;;;;;;;30.07;23.97;;;11.10;1.00;;;;;;4984100;28;20315;-76
2020/12/16 11:27:19;;;;;;;29.35;21.63;;;11.30;1.00;;;;;;4973855;28;20446;-75
2020/12/16 11:29:49;;;;;;;28.70;23.27;;;11.30;1.00;;;;;;4973212;28;20901;-76
2020/12/16 11:32:19;;;;;;;25.90;21.40;;;11.30;1.00;;;;;;4979968;28;20227;-76
2020/12/16 11:34:46;;;;;;;30.47;22.77;;;11.20;1.00;;;;;;4977562;28;20224;-74
2020/12/16 11:37:12;;;;;;;29.97;22.60;;;11.20;1.00;;;;;;4977973;28;21052;-76
2020/12/16 11:39:38;;;;;;;31.27;21.90;;;11.20;1.00;;;;;;4963638;28;20467;-76
2020/12/16 11:42:05;;;;;;;30.83;22.23;;;11.20;1.00;;;;;;4983863;28;20250;-77
2020/12/16 11:44:31;;;;;;;29.15;20.85;;;11.10;1.00;;;;;;4964908;28;20821;-76
2020/12/16 11:46:58;;;;;;;27.42;21.80;;;11.10;1.00;;;;;;4983531;28;20322;-77
2020/12/16 11:49:26;;;;;;;28.57;20.23;;;11.10;1.00;;;;;;4963471;28;20222;-76
2020/12/16 11:51:54;;;;;;;32.93;22.80;;;11.00;1.00;;;;;;4980287;28;20512;-76
2020/12/16 11:54:20;;;;;;;33.80;21.05;;;11.00;1.00;;;;;;4965288;28;20455;-77
2020/12/16 11:56:47;;;;;;;28.95;21.88;;;11.00;1.00;;;;;;4976805;28;21198;-77
2020/12/16 11:59:15;;;;;;;29.77;20.35;;;11.00;1.00;;;;;;4966728;28;21114;-77
2020/12/16 12:01:42;;;;;;;26.77;21.25;;;11.00;1.00;;;;;;4979055;28;20254;-76
2020/12/16 12:04:09;;;;;;;29.60;20.50;;;11.00;1.00;;;;;;4966943;28;20226;-77
2020/12/16 12:06:36;;;;;;;28.35;22.48;;;10.90;1.00;;;;;;4978783;28;20512;-76
2020/12/16 12:09:09;;;;;;;31.58;23.05;;;10.90;1.00;;;;;;4968703;28;21505;-76
2020/12/16 12:11:36;;;;;;;26.30;20.13;;;10.80;1.00;;;;;;4975377;28;20266;-76
2020/12/16 12:14:03;;;;;;;30.80;21.40;;;10.80;1.00;;;;;;4968181;28;20228;-78
2020/12/16 12:16:29;;;;;;;28.08;18.95;;;10.70;1.00;;;;;;4981241;28;20226;-76
2020/12/16 12:18:55;;;;;;;26.83;19.70;;;10.70;1.00;;;;;;4984673;28;20295;-77
2020/12/16 12:21:35;;;;;;;30.25;20.52;;;10.60;1.00;;;;;;4964635;28;20235;-75
2020/12/16 12:24:02;;;;;;;30.42;20.67;;;10.50;1.00;;;;;;4987314;28;20223;-75
2020/12/16 12:26:28;;;;;;;32.67;22.57;;;10.50;1.00;;;;;;4979112;28;20234;-75
2020/12/16 12:28:55;;;;;;;27.58;20.08;;;10.50;1.00;;;;;;4976675;28;20568;-76
2020/12/16 12:31:21;;;;;;;28.73;20.50;;;10.50;1.00;;;;;;4965680;28;20340;-76
2020/12/16 12:33:47;;;;;;;22.85;18.23;;;10.50;1.00;;;;;;4980183;28;20317;-76
2020/12/16 12:36:14;;;;;;;30.20;19.55;;;10.50;1.00;;;;;;4964847;28;20225;-76
2020/12/16 12:38:40;;;;;;;26.40;20.50;;;10.60;1.00;;;;;;4980223;28;20307;-78
2020/12/16 12:41:07;;;;;;;31.55;20.05;;;10.70;1.00;;;;;;4971868;28;20229;-77
2020/12/16 12:43:34;;;;;;;33.13;21.45;;;10.70;1.00;;;;;;4983322;28;20962;-76
2020/12/16 12:46:00;;;;;;;28.33;20.77;;;10.70;1.00;;;;;;4961969;28;20216;-77
2020/12/16 12:48:27;;;;;;;30.60;23.10;;;10.70;1.00;;;;;;4986959;28;20336;-77
2020/12/16 12:51:04;;;;;;;35.30;22.00;;;10.80;1.00;;;;;;4965651;28;20243;-76
2020/12/16 12:53:30;;;;;;;29.67;21.42;;;10.90;1.00;;;;;;4983972;28;20224;-76